createdAt,value
2018-07-23T00:03:13.261Z,99.90
2018-07-23T00:05:40.295Z,99.90
2018-07-23T00:08:07.273Z,99.90
2018-07-23T00:13:13.749Z,99.90
2018-07-23T00:15:42.619Z,99.90
2018-07-23T00:18:07.762Z,99.90
2018-07-23T00:20:35.288Z,99.90
2018-07-23T00:23:02.273Z,99.90
2018-07-23T00:25:29.310Z,99.90
2018-07-23T00:27:56.378Z,99.90
2018-07-23T00:30:23.370Z,99.90
2018-07-23T00:32:50.348Z,99.90
2018-07-23T00:35:17.379Z,99.90
2018-07-23T00:37:44.766Z,99.90
2018-07-23T00:40:11.768Z,99.90
2018-07-23T00:47:34.912Z,99.90
2018-07-23T00:50:01.969Z,99.90
2018-07-23T00:52:28.954Z,99.90
2018-07-23T00:54:55.936Z,99.90
2018-07-23T00:57:22.965Z,99.90
2018-07-23T00:59:50.517Z,99.90
2018-07-23T01:02:17.508Z,99.90
2018-07-23T01:04:44.571Z,99.90
2018-07-23T01:07:11.624Z,99.90
2018-07-23T01:12:08.828Z,99.90
2018-07-23T01:14:36.764Z,99.90
2018-07-23T01:19:33.928Z,99.90
2018-07-23T01:22:00.915Z,99.90
2018-07-23T01:24:27.907Z,99.90
2018-07-23T01:26:56.085Z,99.90
2018-07-23T01:29:23.062Z,99.90
2018-07-23T01:34:28.583Z,99.90
2018-07-23T01:36:55.579Z,99.90
2018-07-23T01:39:22.563Z,99.90
2018-07-23T01:41:49.597Z,99.90
2018-07-23T01:44:16.584Z,99.90
2018-07-23T01:46:43.568Z,99.90
2018-07-23T01:49:10.605Z,99.90
2018-07-23T01:51:37.594Z,99.90
2018-07-23T01:54:04.571Z,99.90
2018-07-23T01:56:31.623Z,99.90
2018-07-23T01:58:58.616Z,99.90
2018-07-23T02:01:25.595Z,99.90
2018-07-23T02:03:52.623Z,99.90
2018-07-23T02:06:19.607Z,99.90
2018-07-23T02:08:46.597Z,99.90
2018-07-23T02:11:13.666Z,99.90
2018-07-23T02:13:40.649Z,99.90
2018-07-23T02:16:07.638Z,99.90
2018-07-23T02:18:35.027Z,99.90
2018-07-23T02:21:02.190Z,99.90
2018-07-23T02:23:29.172Z,99.90
2018-07-23T02:25:56.257Z,99.90
2018-07-23T02:28:23.243Z,99.90
2018-07-23T02:30:50.229Z,99.90
2018-07-23T02:33:17.280Z,99.90
2018-07-23T02:35:44.277Z,99.90
2018-07-23T02:38:11.247Z,99.90
2018-07-23T02:40:38.315Z,99.90
2018-07-23T02:43:05.293Z,99.90
2018-07-23T02:45:32.293Z,99.90
2018-07-23T02:47:59.363Z,99.90
2018-07-23T02:50:28.238Z,99.90
2018-07-23T02:55:34.652Z,99.90
2018-07-23T02:58:01.637Z,99.90
2018-07-23T03:00:28.611Z,99.90
2018-07-23T03:02:55.630Z,99.90
2018-07-23T03:05:22.609Z,99.90
2018-07-23T03:07:49.594Z,99.90
2018-07-23T03:10:16.616Z,99.90
2018-07-23T03:12:45.457Z,99.90
2018-07-23T03:15:10.587Z,99.90
2018-07-23T03:17:38.607Z,99.90
2018-07-23T03:20:05.599Z,99.90
2018-07-23T03:24:59.701Z,99.90
2018-07-23T03:27:26.688Z,99.90
2018-07-23T03:29:55.998Z,99.90
2018-07-23T03:32:23.052Z,99.90
2018-07-23T03:34:50.039Z,99.90
2018-07-23T03:39:44.141Z,99.90
2018-07-23T03:42:12.001Z,99.90
2018-07-23T03:44:38.993Z,99.90
2018-07-23T03:47:08.009Z,99.90
2018-07-23T03:49:34.942Z,99.90
2018-07-23T03:52:01.924Z,99.90
2018-07-23T03:54:28.947Z,99.90
2018-07-23T03:56:55.928Z,99.90
2018-07-23T03:59:22.901Z,99.90
2018-07-23T04:01:49.930Z,99.90
2018-07-23T04:04:16.919Z,99.90
2018-07-23T04:06:43.904Z,99.90
2018-07-23T04:11:43.946Z,99.90
2018-07-23T04:14:10.928Z,99.90
2018-07-23T04:16:37.977Z,99.90
2018-07-23T04:21:43.559Z,99.90
2018-07-23T04:24:10.599Z,99.90
2018-07-23T04:26:38.536Z,99.90
2018-07-23T04:29:05.560Z,99.90
2018-07-23T04:31:33.499Z,99.90
2018-07-23T04:36:27.662Z,99.90
2018-07-23T04:38:54.661Z,99.90
2018-07-23T04:41:21.640Z,99.90
2018-07-23T04:43:48.659Z,99.90
2018-07-23T04:46:15.752Z,99.90
2018-07-23T04:48:42.736Z,99.90
2018-07-23T04:51:09.797Z,99.90
2018-07-23T04:53:37.197Z,99.90
2018-07-23T04:56:04.039Z,99.90
2018-07-23T04:58:31.095Z,99.90
2018-07-23T05:00:59.118Z,99.90
2018-07-23T05:03:26.202Z,99.90
2018-07-23T05:05:53.271Z,99.90
2018-07-23T05:10:47.353Z,99.90
2018-07-23T05:13:14.388Z,99.90
2018-07-23T05:15:41.370Z,99.90
2018-07-23T05:18:08.375Z,99.90
2018-07-23T05:20:35.399Z,99.90
2018-07-23T05:23:02.386Z,99.90
2018-07-23T05:27:56.505Z,99.90
2018-07-23T05:30:23.490Z,99.90
2018-07-23T05:32:50.483Z,99.90
2018-07-23T05:35:17.512Z,99.90
2018-07-23T05:40:12.064Z,99.90
2018-07-23T05:42:38.927Z,99.90
2018-07-23T05:45:05.912Z,99.90
2018-07-23T05:50:13.449Z,99.90
2018-07-23T05:52:40.466Z,99.90
2018-07-23T05:55:07.469Z,99.90
2018-07-23T05:57:34.515Z,99.90
2018-07-23T06:00:02.353Z,99.90
2018-07-23T06:02:29.336Z,99.90
2018-07-23T06:04:57.126Z,99.90
2018-07-23T06:07:24.104Z,99.90
2018-07-23T06:09:51.090Z,99.90
2018-07-23T06:12:18.142Z,99.90
2018-07-23T06:14:45.126Z,99.90
2018-07-23T06:17:12.228Z,99.90
2018-07-23T06:19:39.130Z,99.90
2018-07-23T06:22:07.815Z,99.90
2018-07-23T06:24:34.799Z,99.90
2018-07-23T06:27:02.804Z,99.90
2018-07-23T06:29:29.785Z,99.90
2018-07-23T06:31:56.857Z,99.90
2018-07-23T06:34:23.883Z,99.90
2018-07-23T06:36:53.779Z,99.90
2018-07-23T06:39:18.826Z,99.90
2018-07-23T06:41:45.879Z,99.90
2018-07-23T06:46:39.978Z,99.90
2018-07-23T06:49:06.957Z,99.90
2018-07-23T06:51:33.939Z,99.90
2018-07-23T06:54:00.958Z,99.90
2018-07-23T06:56:27.982Z,99.90
2018-07-23T06:58:55.026Z,99.90
2018-07-23T07:01:22.020Z,99.90
2018-07-23T07:03:49.072Z,99.90
2018-07-23T07:08:55.044Z,99.90
2018-07-23T07:11:22.038Z,99.90
2018-07-23T07:13:49.031Z,99.90
2018-07-23T07:16:16.094Z,99.40
2018-07-23T07:21:15.076Z,98.70
2018-07-23T07:23:42.098Z,98.90
2018-07-23T07:26:09.176Z,96.90
2018-07-23T07:28:36.157Z,97.70
2018-07-23T07:31:03.180Z,96.80
2018-07-23T07:33:30.208Z,98.30
2018-07-23T07:35:57.197Z,98.10
2018-07-23T07:38:24.277Z,99.40
2018-07-23T07:40:51.239Z,99.50
2018-07-23T07:43:18.231Z,99.00
2018-07-23T07:45:49.010Z,97.10
2018-07-23T07:48:15.992Z,98.60
2018-07-23T07:50:42.975Z,97.40
2018-07-23T07:53:10.008Z,93.30
2018-07-23T07:55:36.999Z,92.00
2018-07-23T07:58:03.980Z,95.80
2018-07-23T08:00:31.036Z,94.50
2018-07-23T08:02:58.022Z,95.20
2018-07-23T08:05:25.006Z,94.80
2018-07-23T08:07:52.060Z,96.00
2018-07-23T08:10:19.074Z,94.70
2018-07-23T08:12:46.055Z,91.20
2018-07-23T08:15:13.913Z,96.20
2018-07-23T08:17:40.899Z,95.20
2018-07-23T08:20:07.881Z,94.10
2018-07-23T08:22:34.942Z,93.10
2018-07-23T08:27:44.736Z,89.30
2018-07-23T08:30:14.435Z,91.70
2018-07-23T08:32:39.470Z,92.10
2018-07-23T08:35:06.505Z,85.30
2018-07-23T08:37:33.480Z,88.70
2018-07-23T08:40:00.464Z,87.20
2018-07-23T08:42:27.489Z,89.00
2018-07-23T08:47:21.542Z,90.70
2018-07-23T08:49:48.604Z,90.50
2018-07-23T08:52:15.595Z,88.30
2018-07-23T08:54:45.739Z,87.40
2018-07-23T08:57:12.830Z,85.70
2018-07-23T08:59:42.072Z,86.80
2018-07-23T09:02:09.058Z,89.20
2018-07-23T09:04:36.121Z,87.30
2018-07-23T09:09:31.832Z,82.50
2018-07-23T09:11:58.859Z,86.10
2018-07-23T09:14:25.847Z,87.00
2018-07-23T09:16:52.827Z,82.50
2018-07-23T09:19:19.847Z,81.10
2018-07-23T09:21:47.657Z,84.80
2018-07-23T09:24:14.645Z,82.90
2018-07-23T09:26:45.185Z,82.90
2018-07-23T09:29:12.505Z,83.90
2018-07-23T09:31:39.480Z,85.00
2018-07-23T09:34:07.232Z,86.70
2018-07-23T09:36:36.251Z,88.80
2018-07-23T09:41:44.450Z,82.00
2018-07-23T09:44:11.427Z,81.90
2018-07-23T09:46:38.416Z,80.80
2018-07-23T09:49:05.452Z,77.60
2018-07-23T09:51:32.463Z,81.10
2018-07-23T09:53:59.450Z,83.20
2018-07-23T09:56:26.501Z,82.30
2018-07-23T09:58:55.338Z,86.00
2018-07-23T10:01:20.470Z,85.70
2018-07-23T10:06:27.307Z,89.60
2018-07-23T10:08:54.362Z,88.50
2018-07-23T10:11:21.338Z,89.60
2018-07-23T10:13:48.322Z,92.00
2018-07-23T10:16:15.358Z,89.20
2018-07-23T10:18:42.341Z,91.50
2018-07-23T10:21:10.220Z,93.00
2018-07-23T10:23:37.275Z,93.50
2018-07-23T10:26:04.249Z,96.00
2018-07-23T10:28:31.234Z,97.70
2018-07-23T10:30:58.264Z,99.70
2018-07-23T10:35:52.334Z,99.90
2018-07-23T10:38:19.361Z,99.90
2018-07-23T10:40:46.627Z,99.90
2018-07-23T10:43:13.624Z,99.90
2018-07-23T10:45:40.691Z,99.90
2018-07-23T10:48:07.676Z,99.90
2018-07-23T10:50:34.656Z,99.90
2018-07-23T10:53:01.685Z,99.90
2018-07-23T10:57:55.736Z,99.90
2018-07-23T11:00:22.766Z,99.90
2018-07-23T11:02:49.746Z,99.90
2018-07-23T11:05:16.744Z,99.90
2018-07-23T11:07:43.759Z,99.90
2018-07-23T11:10:10.746Z,99.90
2018-07-23T11:12:37.768Z,99.60
2018-07-23T11:15:04.790Z,99.90
2018-07-23T11:22:40.804Z,99.40
2018-07-23T11:25:38.977Z,97.90
2018-07-23T11:27:38.318Z,98.50
2018-07-23T11:30:05.378Z,98.30
2018-07-23T11:32:32.373Z,98.00
2018-07-23T11:34:59.358Z,99.90
2018-07-23T11:37:26.402Z,99.90
2018-07-23T11:39:53.391Z,99.90
2018-07-23T11:42:22.488Z,99.80
2018-07-23T11:44:49.521Z,99.10
2018-07-23T11:47:16.513Z,96.80
2018-07-23T11:49:43.490Z,95.60
2018-07-23T11:52:14.363Z,98.20
2018-07-23T11:54:37.532Z,95.60
2018-07-23T11:57:05.152Z,93.70
2018-07-23T11:59:32.178Z,94.40
2018-07-23T12:01:59.168Z,97.30
2018-07-23T12:04:26.258Z,95.10
2018-07-23T12:06:53.214Z,95.20
2018-07-23T12:09:20.199Z,94.30
2018-07-23T12:11:47.229Z,92.50
2018-07-23T12:14:14.221Z,92.30
2018-07-23T12:16:41.208Z,93.10
2018-07-23T12:19:08.196Z,93.30
2018-07-23T12:21:35.253Z,90.90
2018-07-23T12:24:02.236Z,91.10
2018-07-23T12:26:29.221Z,92.10
2018-07-23T12:31:34.547Z,85.20
2018-07-23T12:34:01.603Z,87.30
2018-07-23T12:36:30.220Z,85.10
2018-07-23T12:38:57.210Z,85.20
2018-07-23T12:41:24.274Z,87.20
2018-07-23T12:43:51.255Z,84.60
2018-07-23T12:46:18.240Z,86.30
2018-07-23T12:48:45.289Z,88.00
2018-07-23T12:51:12.274Z,85.80
2018-07-23T12:53:39.266Z,87.30
2018-07-23T12:56:07.042Z,86.40
2018-07-23T12:58:34.028Z,90.80
2018-07-23T13:01:01.019Z,89.50
2018-07-23T13:03:28.104Z,89.00
2018-07-23T13:05:55.093Z,86.00
2018-07-23T13:08:22.067Z,85.70
2018-07-23T13:10:49.117Z,83.20
2018-07-23T13:13:16.111Z,80.30
2018-07-23T13:15:43.112Z,80.20
2018-07-23T13:18:10.851Z,83.50
2018-07-23T13:20:43.685Z,82.50
2018-07-23T13:23:10.703Z,85.30
2018-07-23T13:25:37.688Z,86.60
2018-07-23T13:28:04.682Z,87.10
2018-07-23T13:30:33.583Z,85.70
2018-07-23T13:35:27.642Z,87.20
2018-07-23T13:37:54.692Z,87.30
2018-07-23T13:40:21.655Z,87.10
2018-07-23T13:42:48.645Z,84.70
2018-07-23T13:45:15.704Z,84.50
2018-07-23T13:47:42.890Z,84.20
2018-07-23T13:55:15.290Z,81.20
2018-07-23T13:57:42.319Z,81.80
2018-07-23T14:00:10.265Z,83.90
2018-07-23T14:02:37.253Z,79.40
2018-07-23T14:07:36.470Z,77.10
2018-07-23T14:12:30.936Z,81.60
2018-07-23T14:14:57.927Z,83.50
2018-07-23T14:19:52.048Z,82.80
2018-07-23T14:22:19.092Z,83.00
2018-07-23T14:24:46.012Z,82.10
2018-07-23T14:27:14.514Z,79.00
2018-07-23T14:29:41.498Z,74.60
2018-07-23T14:32:09.299Z,74.60
2018-07-23T14:34:36.733Z,75.30
2018-07-23T14:37:03.713Z,77.90
2018-07-23T14:39:30.708Z,77.90
2018-07-23T14:41:57.768Z,76.10
2018-07-23T14:44:25.636Z,79.10
2018-07-23T14:46:52.552Z,77.50
2018-07-23T14:49:19.584Z,75.20
2018-07-23T14:51:46.567Z,76.30
2018-07-23T14:54:13.544Z,72.60
2018-07-23T14:56:40.594Z,69.80
2018-07-23T14:59:07.575Z,67.00
2018-07-23T15:04:13.808Z,70.10
2018-07-23T15:06:40.792Z,70.00
2018-07-23T15:09:07.771Z,68.60
2018-07-23T15:11:34.821Z,66.10
2018-07-23T15:14:02.165Z,65.80
2018-07-23T15:16:30.122Z,67.20
2018-07-23T15:18:57.140Z,68.50
2018-07-23T15:21:24.946Z,70.00
2018-07-23T15:23:53.823Z,68.50
2018-07-23T15:26:18.954Z,69.10
2018-07-23T15:28:46.104Z,62.70
2018-07-23T15:31:13.092Z,66.50
2018-07-23T15:33:41.040Z,63.60
2018-07-23T15:36:08.272Z,68.90
2018-07-23T15:38:35.313Z,63.30
2018-07-23T15:41:02.278Z,65.20
2018-07-23T15:43:29.265Z,62.80
2018-07-23T15:45:56.383Z,63.00
2018-07-23T15:48:23.283Z,62.80
2018-07-23T15:50:50.274Z,59.90
2018-07-23T15:53:17.254Z,64.00
2018-07-23T15:55:44.298Z,64.40
2018-07-23T15:58:11.284Z,65.10
2018-07-23T16:00:38.278Z,65.60
2018-07-23T16:03:05.299Z,61.10
2018-07-23T16:05:32.289Z,60.70
2018-07-23T16:07:59.280Z,63.40
2018-07-23T16:10:26.680Z,64.20
2018-07-23T16:12:53.663Z,66.40
2018-07-23T16:17:59.180Z,65.50
2018-07-23T16:20:26.165Z,67.70
2018-07-23T16:22:56.447Z,69.10
2018-07-23T16:25:23.476Z,71.70
2018-07-23T16:27:50.464Z,71.30
2018-07-23T16:30:17.446Z,71.10
2018-07-23T16:32:44.473Z,68.80
2018-07-23T16:35:12.198Z,70.30
2018-07-23T16:37:39.172Z,70.70
2018-07-23T16:40:07.139Z,70.10
2018-07-23T16:42:34.129Z,72.00
2018-07-23T16:45:02.062Z,70.80
2018-07-23T16:47:29.085Z,64.90
2018-07-23T16:52:27.456Z,64.30
2018-07-23T16:54:54.437Z,66.30
2018-07-23T16:57:21.449Z,67.30
2018-07-23T16:59:48.454Z,70.30
2018-07-23T17:02:15.495Z,70.80
2018-07-23T17:04:42.485Z,71.50
2018-07-23T17:07:09.461Z,72.20
2018-07-23T17:09:36.511Z,72.30
2018-07-23T17:12:03.527Z,73.10
2018-07-23T17:14:30.513Z,72.50
2018-07-23T17:16:58.346Z,74.80
2018-07-23T17:19:25.334Z,76.70
2018-07-23T17:21:52.323Z,77.70
2018-07-23T17:24:19.348Z,78.10
2018-07-23T17:26:46.327Z,77.90
2018-07-23T17:31:54.125Z,79.90
2018-07-23T17:34:21.127Z,81.00
2018-07-23T17:36:48.112Z,80.80
2018-07-23T17:39:15.172Z,80.80
2018-07-23T17:44:10.073Z,80.30
2018-07-23T17:49:08.283Z,78.60
2018-07-23T17:54:16.056Z,78.50
2018-07-23T17:56:43.037Z,77.70
2018-07-23T18:01:38.154Z,79.70
2018-07-23T18:04:05.149Z,79.10
2018-07-23T18:06:32.321Z,78.90
2018-07-23T18:09:01.464Z,75.90
2018-07-23T18:11:28.463Z,76.00
2018-07-23T18:13:55.443Z,74.30
2018-07-23T18:16:22.502Z,75.80
2018-07-23T18:18:50.401Z,74.60
2018-07-23T18:21:18.348Z,75.80
2018-07-23T18:23:45.390Z,76.10
2018-07-23T18:26:13.650Z,76.80
2018-07-23T18:28:40.733Z,75.80
2018-07-23T18:31:07.825Z,77.00
2018-07-23T18:33:35.508Z,77.40
2018-07-23T18:36:02.492Z,79.10
2018-07-23T18:38:29.722Z,79.30
2018-07-23T18:40:56.679Z,80.60
2018-07-23T18:43:23.680Z,81.90
2018-07-23T18:45:50.738Z,80.40
2018-07-23T18:48:18.000Z,80.00
2018-07-23T18:50:45.102Z,81.60
2018-07-23T18:55:50.826Z,81.70
2018-07-23T18:58:18.170Z,82.10
2018-07-23T19:00:48.461Z,82.50
2018-07-23T19:03:15.660Z,82.50
2018-07-23T19:05:43.383Z,85.60
2018-07-23T19:08:10.609Z,85.40
2018-07-23T19:10:37.902Z,84.80
2018-07-23T19:13:08.101Z,86.90
2018-07-23T19:15:33.819Z,85.80
2018-07-23T19:18:00.907Z,85.50
2018-07-23T19:20:28.425Z,81.70
2018-07-23T19:22:56.102Z,82.70
2018-07-23T19:25:23.058Z,84.70
2018-07-23T19:27:50.822Z,81.80
2018-07-23T19:30:17.915Z,82.50
2018-07-23T19:32:47.028Z,83.50
2018-07-23T19:35:14.583Z,83.40
2018-07-23T19:37:42.144Z,85.40
2018-07-23T19:40:09.157Z,86.70
2018-07-23T19:42:36.818Z,85.80
2018-07-23T19:45:04.273Z,84.30
2018-07-23T19:47:31.457Z,84.00
2018-07-23T19:49:58.837Z,84.10
2018-07-23T19:52:26.673Z,83.70
2018-07-23T19:54:53.659Z,84.30
2018-07-23T19:57:20.976Z,83.20
2018-07-23T20:02:16.129Z,82.90
2018-07-23T20:04:43.611Z,82.40
2018-07-23T20:07:10.697Z,83.90
2018-07-23T20:09:37.957Z,85.00
2018-07-23T20:17:14.768Z,84.90
2018-07-23T20:19:42.835Z,85.40
2018-07-23T20:22:14.378Z,84.50
2018-07-23T20:24:46.704Z,84.10
2018-07-23T20:27:12.554Z,82.90
2018-07-23T20:29:39.723Z,83.20
2018-07-23T20:32:07.022Z,83.70
2018-07-23T20:34:35.903Z,84.30
2018-07-23T20:37:03.368Z,85.10
2018-07-23T20:39:30.572Z,84.90
2018-07-23T20:41:57.778Z,84.80
2018-07-23T20:44:25.406Z,85.80
2018-07-23T20:46:52.595Z,86.60
2018-07-23T20:49:19.744Z,86.60
2018-07-23T20:51:46.823Z,86.90
2018-07-23T20:54:13.835Z,87.40
2018-07-23T20:56:40.908Z,86.70
2018-07-23T20:59:07.844Z,87.50
2018-07-23T21:01:35.017Z,87.90
2018-07-23T21:04:02.002Z,87.50
2018-07-23T21:06:29.045Z,86.70
2018-07-23T21:08:56.170Z,88.00
2018-07-23T21:11:23.230Z,88.50
2018-07-23T21:13:50.402Z,88.90
2018-07-23T21:16:17.615Z,89.10
2018-07-23T21:18:44.605Z,88.70
2018-07-23T21:21:11.662Z,88.00
2018-07-23T21:23:38.814Z,88.80
2018-07-23T21:26:07.288Z,88.70
2018-07-23T21:31:12.960Z,88.50
2018-07-23T21:33:39.966Z,88.50
2018-07-23T21:36:06.951Z,88.20
2018-07-23T21:38:33.977Z,88.40
2018-07-23T21:46:08.037Z,90.60
2018-07-23T21:48:35.057Z,91.80
2018-07-23T21:51:02.295Z,92.60
2018-07-23T21:53:29.351Z,92.20
2018-07-23T21:55:56.340Z,92.80
2018-07-23T21:58:23.332Z,92.00
2018-07-23T22:00:50.357Z,91.70
2018-07-23T22:03:17.421Z,91.80
2018-07-23T22:05:44.326Z,92.40
2018-07-23T22:08:11.367Z,91.80
2018-07-23T22:10:38.357Z,92.70
2018-07-23T22:13:05.384Z,90.90
2018-07-23T22:15:32.429Z,93.10
2018-07-23T22:17:59.951Z,92.40
2018-07-23T22:20:26.939Z,92.30
2018-07-23T22:22:54.090Z,92.10
2018-07-23T22:25:21.887Z,93.20
2018-07-23T22:27:48.877Z,93.30
2018-07-23T22:35:23.786Z,93.00
2018-07-23T22:37:51.846Z,92.50
2018-07-23T22:40:19.077Z,91.30
2018-07-23T22:42:48.093Z,91.00
2018-07-23T22:47:43.493Z,93.80
2018-07-23T22:50:10.535Z,93.60
2018-07-23T22:52:38.476Z,93.10
2018-07-23T22:55:06.074Z,93.30
2018-07-23T22:57:33.101Z,93.20
2018-07-23T23:00:00.095Z,93.20
2018-07-23T23:02:27.085Z,93.20
2018-07-23T23:04:57.566Z,93.80
2018-07-23T23:07:24.567Z,92.90
2018-07-23T23:09:52.494Z,93.00
2018-07-23T23:12:19.546Z,93.50
2018-07-23T23:14:48.696Z,93.30
2018-07-23T23:19:43.258Z,94.80
2018-07-23T23:22:11.092Z,95.60
2018-07-23T23:24:38.086Z,95.00
2018-07-23T23:27:05.136Z,94.50
2018-07-23T23:29:32.132Z,94.50
2018-07-23T23:31:59.119Z,95.10
2018-07-23T23:34:26.186Z,94.60
2018-07-23T23:39:20.697Z,93.90
2018-07-23T23:41:47.620Z,94.80
2018-07-23T23:44:14.610Z,95.10
2018-07-23T23:46:41.606Z,95.60
2018-07-23T23:49:08.663Z,96.50
2018-07-23T23:51:35.648Z,97.20
2018-07-23T23:54:08.472Z,96.80
2018-07-23T23:56:40.859Z,96.90
